54AZ weather

Somerton Airport
Somerton, Arizona, United States

Public forecast

Using degrees Fahrenheit for public forecast. Weather courtesy of forecast.io.

Closest aviation weather report (METAR) to Somerton Airport

Closest report is Yuma MCAS/Yuma International Airport, 4.5 nm (8.4 km) NE. Retrieved 2020/02/21 23:57 UTC (32 minutes ago):

KNYL 212357Z 09006KT 10SM CLR 27/02 A2995 RMK AO2 SLP139 T02670022 10272 20222 56010

Closest aviation forecast (TAF) to Somerton Airport

Forecast is more than 12 hours old.

Closest forecast is Yuma MCAS/Yuma International Airport, 4.5 nm (8.4 km) NE. Retrieved 2014/04/27 15:15 UTC (6 years ago):

TAF TAF COR KNYL 271500Z 2715/2815 VRB06KT 9999 FEW250 QNH2989INS BECMG 2716/2718 26007KT QNH2978INS BECMG 2806/2808 VRB05KT QNH2981INS AUTOMATED SENSOR METWATCH 2715 TIL 2815 TX22/2723Z TN10/2813Z COR 1545